Latest Weather Observations for Applethorpe

IDN60801

Issued at 8:22 pm EDT Tuesday 23 October 2018 (issued every 10 minutes, with the page automatically refreshed every 10 minutes)

About weather observations | Map of weather stations | Latest weather observations for NSW | Other Formats
Station Details ID: 041175 Name: APPLETHORPE Lat: -28.62 Lon: 151.95 Height: 871.6 m
Data from the previous 72 hours. | See also: Recent months at Applethorpe
Date/Time
EDT
Temp
°C
App
Temp
°C
Dew
Point
°C
Rel
Hum
%
Delta-T
°C
Wind Press
QNH
hPa
Press
MSL
hPa
Rain since
9am
mm
Dir  Spd
km/h
Gust
km/h
Spd
kts
Gust
kts
23/08:00pm 18.7 19.5 12.7 68 3.5 CALM 0 2 0 1 1018.1 1015.4 0.0
23/07:30pm 20.3 21.0 13.3 64 4.2 WNW 2 6 1 3 1017.8 1015.1 0.0
23/07:00pm 22.4 22.1 12.6 54 5.8 W 6 7 3 4 1017.5 1014.7 0.0
23/06:30pm 24.1 23.7 12.4 48 7.0 WNW 6 13 3 7 1017.2 1014.4 0.0
23/06:00pm 24.8 24.5 12.7 47 7.3 WSW 6 11 3 6 1016.9 1014.2 0.0
23/05:30pm 25.1 24.5 12.3 45 7.6 W 7 13 4 7 1016.6 1013.9 0.0
23/05:00pm 25.1 23.9 11.6 42 8.0 SW 9 17 5 9 1016.6 1013.9 0.0
23/04:30pm 25.5 25.0 12.7 45 7.7 W 7 19 4 10 1016.5 1013.7 0.0
23/04:00pm 25.4 24.4 12.3 44 7.8 W 9 20 5 11 1016.6 1013.9 0.0
23/03:30pm 25.0 24.0 12.2 44 7.6 WSW 9 17 5 9 1016.9 1014.2 0.0
23/03:00pm 24.9 23.2 12.5 46 7.4 WSW 13 22 7 12 1017.3 1014.5 0.0
23/02:30pm 24.4 23.6 13.0 49 6.9 SW 9 17 5 9 1017.6 1014.9 0.0
23/02:00pm 23.6 23.3 12.6 50 6.5 WNW 6 13 3 7 1017.9 1015.2 0.0
23/01:30pm 23.1 22.2 11.5 48 6.8 WSW 7 17 4 9 1018.3 1015.6 0.0
23/01:00pm 23.3 23.0 13.2 53 6.1 WNW 7 15 4 8 1018.8 1016.1 0.0
23/12:30pm 22.2 22.2 14.1 60 4.9 SSW 7 17 4 9 1019.1 1016.4 0.0
23/12:00pm 22.7 23.5 14.8 61 4.9 NNW 4 6 2 3 1019.5 1016.8 0.0
23/11:30am 22.2 22.8 14.3 61 4.8 SSW 4 9 2 5 1019.9 1017.2 0.0
23/11:00am 22.5 23.1 15.8 66 4.2 SSW 7 13 4 7 1020.2 1017.5 0.0
23/10:30am 22.0 23.0 15.4 66 4.1 ENE 4 7 2 4 1020.2 1017.5 0.0
23/10:00am 20.7 21.5 14.8 69 3.6 N 4 6 2 3 1020.4 1017.7 0.0
23/09:30am 19.8 20.1 14.4 71 3.3 NE 6 9 3 5 1020.3 1017.6 0.0
23/09:00am 19.2 20.1 15.1 77 2.5 NE 4 6 2 3 1020.3 1017.6 0.0
23/08:30am 17.9 19.1 15.9 88 1.2 NE 4 6 2 3 1020.1 1017.4 0.0
23/08:00am 15.1 16.4 15.1 100 0.0 ENE 2 6 1 3 1019.9 1017.2 0.0
23/07:30am 13.2 14.2 13.2 100 0.0 CALM 0 0 0 0 1019.8 1017.1 0.0
23/07:00am 12.0 12.6 12.0 100 0.0 CALM 0 0 0 0 1019.4 1016.7 0.0
23/06:30am 10.8 11.1 10.8 100 0.0 CALM 0 0 0 0 1019.0 1016.3 0.0
23/06:00am 11.4 11.8 11.4 100 0.0 CALM 0 0 0 0 1018.6 1015.9 0.0
23/05:30am 12.1 12.8 12.1 100 0.0 CALM 0 2 0 1 1018.2 1015.5 0.0
23/05:00am 12.8 12.9 12.8 100 0.0 ENE 4 7 2 4 1018.2 1015.5 0.0
23/04:30am 12.3 12.3 12.3 100 0.0 ENE 4 4 2 2 1018.1 1015.4 0.0
23/04:00am 12.3 13.0 12.3 100 0.0 CALM 0 2 0 1 1018.1 1015.4 0.0
23/03:30am 13.0 13.6 13.0 100 0.0 NE 2 2 1 1 1018.1 1015.4 0.0
23/03:00am 13.7 14.1 13.7 100 0.0 NE 4 6 2 3 1018.3 1015.6 0.0
23/02:30am 14.4 14.7 14.4 100 0.0 ENE 6 11 3 6 1018.5 1015.7 0.0
23/02:00am 14.7 15.5 14.7 100 0.0 E 4 13 2 7 1018.8 1016.1 0.0
23/01:30am 14.7 14.9 14.7 100 0.0 ENE 7 13 4 7 1019.3 1016.6 0.0
23/01:00am 14.9 15.3 14.7 99 0.1 ENE 6 11 3 6 1019.4 1016.7 0.0
23/12:30am 15.1 15.6 14.9 99 0.1 E 6 13 3 7 1019.7 1017.0 0.0
23/12:00am 15.3 15.6 15.1 99 0.1 E 7 17 4 9 1019.7 1017.0 0.0
 
Date/Time
EDT
Temp
°C
App
Temp
°C
Dew
Point
°C
Rel
Hum
%
Delta-T
°C
Wind Press
QNH
hPa
Press
MSL
hPa
Rain since
9am
mm
Dir  Spd
km/h
Gust
km/h
Spd
kts
Gust
kts
22/11:30pm 15.4 15.8 15.2 99 0.1 ENE 7 17 4 9 1019.7 1017.0 0.0
22/11:00pm 15.7 16.4 15.7 100 0.0 E 6 11 3 6 1019.9 1017.2 0.0
22/10:30pm 15.3 15.7 15.3 100 0.0 ENE 7 13 4 7 1019.7 1017.0 0.0
22/10:00pm 15.5 16.2 15.5 100 0.0 E 6 11 3 6 1019.7 1017.0 0.0
22/09:30pm 15.8 16.6 15.8 100 0.0 E 6 9 3 5 1019.8 1017.1 0.0
22/09:00pm 16.2 17.1 16.0 99 0.1 E 6 9 3 5 1019.5 1016.8 0.0
22/08:30pm 16.7 17.6 16.5 99 0.1 ENE 7 13 4 7 1019.2 1016.5 0.0
22/08:00pm 17.1 18.0 16.0 93 0.7 ENE 6 11 3 6 1018.8 1016.1 0.0
22/07:30pm 17.8 18.2 14.7 82 1.9 ENE 6 11 3 6 1018.2 1015.5 0.0
22/07:00pm 18.8 19.4 14.3 75 2.7 E 4 9 2 5 1017.9 1015.2 0.0
22/06:30pm 19.7 20.0 14.5 72 3.1 E 6 9 3 5 1017.7 1015.0 0.0
22/06:00pm 20.8 21.2 14.7 68 3.7 E 6 13 3 7 1017.4 1014.6 0.0
22/05:30pm 21.5 21.8 14.9 66 4.0 E 7 17 4 9 1017.2 1014.4 0.0
22/05:00pm 21.9 21.9 14.3 62 4.6 E 7 15 4 8 1016.8 1014.1 0.0
22/04:30pm 23.0 23.3 15.1 61 4.9 E 7 15 4 8 1016.9 1014.2 0.0
22/04:00pm 22.9 23.5 15.2 62 4.8 E 6 11 3 6 1016.9 1014.2 0.0
22/03:30pm 22.3 23.0 14.4 61 4.8 E 4 9 2 5 1017.2 1014.4 0.0
22/03:00pm 22.9 22.8 15.0 61 4.9 ENE 9 15 5 8 1017.4 1014.6 0.0
22/02:30pm 22.9 23.4 15.5 63 4.6 ENE 7 13 4 7 1017.6 1014.9 0.0
22/02:00pm 22.9 23.7 16.4 67 4.1 ENE 7 15 4 8 1017.9 1015.2 0.0
22/01:30pm 21.5 22.0 15.1 67 3.9 E 6 13 3 7 1018.2 1015.5 0.0
22/01:00pm 20.8 21.0 14.7 68 3.7 ENE 7 15 4 8 1018.5 1015.7 0.0
22/12:30pm 21.1 21.7 15.4 70 3.5 ENE 6 11 3 6 1018.8 1016.1 0.0
22/12:00pm 20.3 20.9 15.7 75 2.8 E 7 13 4 7 1019.2 1016.5 0.0
22/11:30am 19.8 20.0 14.6 72 3.2 ENE 7 15 4 8 1019.4 1016.7 0.0
22/11:00am 19.5 20.2 16.0 80 2.2 E 7 15 4 8 1019.5 1016.8 0.0
22/10:30am 19.8 20.6 17.2 85 1.6 E 9 19 5 10 1019.8 1017.1 0.0
22/10:00am 18.5 18.8 15.9 85 1.6 ESE 9 19 5 10 1019.7 1017.0 3.8
22/09:30am 17.7 18.3 16.7 94 0.6 E 9 19 5 10 1019.7 1017.0 3.8
22/09:00am 16.3 17.0 16.1 99 0.1 ESE 7 15 4 8 1019.5 1016.8 3.8
22/08:30am 15.4 15.8 15.4 100 0.0 ESE 7 13 4 7 1019.3 1016.6 3.8
22/08:00am 15.0 15.5 15.0 100 0.0 E 6 11 3 6 1019.0 1016.3 3.8
22/07:30am 14.1 14.6 14.1 100 0.0 E 4 6 2 3 1018.6 1015.9 3.8
22/07:00am 12.9 13.4 12.9 100 0.0 E 2 6 1 3 1018.5 1015.7 3.8
22/06:30am 12.4 13.2 12.4 100 0.0 CALM 0 4 0 2 1017.9 1015.2 3.8
22/06:00am 12.4 13.2 12.4 100 0.0 CALM 0 2 0 1 1017.7 1015.0 3.8
22/05:30am 13.1 13.7 13.1 100 0.0 E 2 6 1 3 1017.6 1014.9 3.8
22/05:00am 12.6 12.7 12.6 100 0.0 E 4 7 2 4 1017.2 1014.4 3.8
22/04:30am 12.7 13.2 12.7 100 0.0 ENE 2 9 1 5 1016.8 1014.1 3.8
22/04:00am 12.7 13.5 12.7 100 0.0 CALM 0 0 0 0 1016.9 1014.2 3.8
22/03:30am 12.9 13.4 12.9 100 0.0 E 2 4 1 2 1017.0 1014.3 3.8
22/03:00am 12.7 13.5 12.7 100 0.0 CALM 0 4 0 2 1017.0 1014.3 3.8
22/02:30am 11.6 11.3 11.6 100 0.0 ENE 4 7 2 4 1017.3 1014.5 3.8
22/02:00am 11.4 11.5 11.4 100 0.0 ENE 2 4 1 2 1017.6 1014.9 3.6
22/01:30am 11.5 12.0 11.5 100 0.0 CALM 0 4 0 2 1017.7 1015.0 3.6
22/01:00am 11.4 11.8 11.4 100 0.0 CALM 0 0 0 0 1017.9 1015.2 3.6
22/12:30am 11.5 12.0 11.5 100 0.0 CALM 0 0 0 0 1018.3 1015.6 3.6
22/12:00am 12.2 12.1 12.2 100 0.0 SW 4 6 2 3 1018.6 1015.9 3.6
 
Date/Time
EDT
Temp
°C
App
Temp
°C
Dew
Point
°C
Rel
Hum
%
Delta-T
°C
Wind Press
QNH
hPa
Press
MSL
hPa
Rain since
9am
mm
Dir  Spd
km/h
Gust
km/h
Spd
kts
Gust
kts
21/11:30pm 12.4 13.2 12.4 100 0.0 CALM 0 0 0 0 1018.3 1015.6 3.6
21/11:00pm 13.1 13.7 13.1 100 0.0 ESE 2 6 1 3 1018.5 1015.7 3.6
21/10:30pm 13.5 13.8 13.5 100 0.0 ENE 4 6 2 3 1018.7 1016.0 3.6
21/10:00pm 13.8 14.2 13.8 100 0.0 E 4 7 2 4 1019.0 1016.3 3.6
21/09:30pm 14.0 13.9 13.8 99 0.1 E 7 15 4 8 1018.9 1016.2 2.8
21/09:00pm 15.3 15.5 14.7 96 0.4 ESE 7 13 4 7 1018.6 1015.9 0.0
21/08:30pm 16.2 15.3 13.7 85 1.5 ESE 11 20 6 11 1017.9 1015.2 0.0
21/08:00pm 17.1 17.4 13.4 79 2.2 SSW 4 6 2 3 1016.8 1014.1 0.0
21/07:30pm 17.7 17.3 13.0 74 2.7 WSW 7 15 4 8 1016.5 1013.7 0.0
21/07:00pm 18.6 18.1 12.1 66 3.8 SW 6 11 3 6 1016.0 1013.2 0.0
21/06:30pm 19.3 18.1 11.6 61 4.4 SSW 9 15 5 8 1015.3 1012.5 0.0
21/06:00pm 20.3 18.6 12.3 60 4.7 SSW 13 22 7 12 1014.6 1011.9 0.0
21/05:30pm 21.3 20.1 12.7 58 5.1 SSW 11 19 6 10 1014.3 1011.5 0.0
21/05:00pm 20.4 18.4 11.6 57 5.1 SW 13 24 7 13 1013.5 1010.6 0.0
21/04:30pm 21.1 19.3 12.0 56 5.3 WSW 13 24 7 13 1013.8 1011.0 0.0
21/04:00pm 21.1 20.4 13.3 61 4.7 W 9 15 5 8 1014.5 1011.8 0.0
21/03:30pm 19.8 19.3 12.6 63 4.2 WSW 7 15 4 8 1015.2 1012.4 0.0
21/03:00pm 19.1 18.5 12.4 65 3.9 WSW 7 11 4 6 1015.3 1012.5 0.0
21/02:30pm 19.1 18.6 12.6 66 3.8 W 7 13 4 7 1015.7 1013.0 0.0
21/02:00pm 18.9 18.1 12.9 68 3.5 WSW 9 20 5 11 1016.2 1013.4 0.0
21/01:30pm 18.5 17.0 14.2 76 2.6 SW 15 26 8 14 1017.0 1014.3 0.0
21/01:00pm 19.0 18.8 16.6 86 1.5 SW 13 20 7 11 1017.5 1014.7 0.0
21/12:30pm 18.0 16.7 14.9 82 1.9 WSW 15 24 8 13 1017.9 1015.2 0.0
21/12:00pm 18.0 17.9 16.0 88 1.2 WSW 11 17 6 9 1018.1 1015.4 0.0
21/11:30am 18.5 18.4 16.1 86 1.5 WSW 11 22 6 12 1018.5 1015.7 0.0
21/11:00am 17.1 17.6 16.5 96 0.4 WSW 9 20 5 11 1018.7 1016.0 0.0
21/10:30am 16.7 17.1 16.4 98 0.2 WSW 9 17 5 9 1018.7 1016.0 0.0
21/10:00am 16.1 16.4 15.9 99 0.1 W 9 22 5 12 1018.8 1016.1 9.0
21/09:30am 16.2 16.5 16.0 99 0.1 W 9 19 5 10 1018.7 1016.0 9.0
21/09:00am 15.9 15.3 15.7 99 0.1 W 13 22 7 12 1018.6 1015.9 9.0
21/08:30am 15.5 16.2 15.5 100 0.0 WSW 6 9 3 5 1018.1 1015.4 9.0
21/08:00am 14.4 14.7 14.4 100 0.0 WSW 6 9 3 5 1017.8 1015.1 9.0
21/07:30am 14.0 13.9 14.0 100 0.0 SW 7 11 4 6 1017.7 1015.0 9.0
21/07:00am 13.8 13.9 13.8 100 0.0 WSW 6 9 3 5 1017.4 1014.6 9.0
21/06:30am 13.8 13.7 13.8 100 0.0 W 7 13 4 7 1017.4 1014.6 9.0
21/06:00am 13.6 13.6 13.6 100 0.0 WSW 6 13 3 7 1017.0 1014.3 9.0
21/05:30am 13.4 13.3 13.4 100 0.0 N 6 20 3 11 1016.6 1013.9 9.0
21/05:00am 13.7 14.1 13.7 100 0.0 NNE 4 9 2 5 1014.4 1011.6 9.0
21/04:30am 13.7 13.2 13.7 100 0.0 NE 9 13 5 7 1013.3 1010.5 9.0
21/04:00am 13.8 12.9 13.8 100 0.0 ENE 11 20 6 11 1013.0 1010.2 9.0
21/03:46am 13.8 13.3 13.8 100 0.0 ENE 9 17 5 9 1013.6 1010.8 9.0
21/03:30am 14.0 13.6 14.0 100 0.0 NNE 9 15 5 8 1015.8 1013.1 9.0
21/03:00am 14.2 14.4 14.2 100 0.0 NNE 6 9 3 5 1017.2 1014.4 8.4
21/02:30am 14.3 14.5 14.3 100 0.0 WSW 6 11 3 6 1018.9 1016.2 6.8
21/02:00am 14.6 14.8 14.6 100 0.0 WSW 7 11 4 6 1019.2 1016.5 5.6
21/01:30am 14.8 14.6 14.8 100 0.0 SW 9 15 5 8 1019.2 1016.5 4.0
21/01:00am 15.0 14.2 15.0 100 0.0 WSW 13 24 7 13 1019.1 1016.4 1.8
21/12:30am 15.2 15.2 15.2 100 0.0 WSW 9 17 5 9 1018.9 1016.2 0.4
21/12:00am 15.3 15.3 15.3 100 0.0 SSW 9 15 5 8 1018.8 1016.1 0.2
 
Date/Time
EDT
Temp
°C
App
Temp
°C
Dew
Point
°C
Rel
Hum
%
Delta-T
°C
Wind Press
QNH
hPa
Press
MSL
hPa
Rain since
9am
mm
Dir  Spd
km/h
Gust
km/h
Spd
kts
Gust
kts
20/11:30pm 15.6 14.6 15.6 100 0.0 SW 15 22 8 12 1019.0 1016.3 0.2
20/11:00pm 16.6 15.5 16.4 99 0.1 WSW 17 30 9 16 1019.3 1016.6 0.2
20/10:30pm 18.2 18.0 16.7 91 0.9 WNW 13 32 7 17 1018.6 1015.9 0.2
20/10:00pm 17.9 19.4 16.6 92 0.8 NE 4 7 2 4 1017.7 1015.0 0.2
20/09:30pm 18.4 19.9 16.6 89 1.1 NE 4 9 2 5 1017.6 1014.9 0.2

Other Formats:

Comma delimited format used in spreadsheet applications
http://www.bom.gov.au/fwo/IDN60801/IDN60801.94553.axf

JavaScript Object Notation format (JSON) in row-major order
http://www.bom.gov.au/fwo/IDN60801/IDN60801.94553.json